createdAt,value
2022-09-03T00:02:35.000Z,2.66
2022-09-03T00:07:35.000Z,2.74
2022-09-03T00:12:35.000Z,2.81
2022-09-03T00:17:34.000Z,2.96
2022-09-03T00:27:35.000Z,2.83
2022-09-03T00:32:35.000Z,2.63
2022-09-03T00:37:36.000Z,3
2022-09-03T00:42:35.000Z,2.7
2022-09-03T00:47:35.000Z,2.96
2022-09-03T00:52:34.000Z,2.94
2022-09-03T00:57:35.000Z,3.21
2022-09-03T01:02:35.000Z,3.61
2022-09-03T01:07:35.000Z,3.61
2022-09-03T01:12:35.000Z,3.51
2022-09-03T01:17:35.000Z,2.88
2022-09-03T01:22:35.000Z,2.69
2022-09-03T01:27:34.000Z,2.72
2022-09-03T01:32:34.000Z,2.8
2022-09-03T01:37:35.000Z,3
2022-09-03T01:42:35.000Z,3.56
2022-09-03T01:47:35.000Z,4.59
2022-09-03T01:52:34.000Z,3.83
2022-09-03T01:57:47.000Z,3.47
2022-09-03T02:02:35.000Z,2.77
2022-09-03T02:07:35.000Z,2.69
2022-09-03T02:12:34.000Z,2.77
2022-09-03T02:17:35.000Z,2.57
2022-09-03T02:22:34.000Z,2.57
2022-09-03T02:27:34.000Z,3.03
2022-09-03T02:32:35.000Z,3.03
2022-09-03T02:37:35.000Z,3.31
2022-09-03T02:42:35.000Z,4.15
2022-09-03T02:47:35.000Z,4.36
2022-09-03T02:52:35.000Z,4.52
2022-09-03T02:57:37.000Z,4.39
2022-09-03T03:02:35.000Z,4.02
2022-09-03T03:07:35.000Z,3.81
2022-09-03T03:12:34.000Z,3.84
2022-09-03T03:17:34.000Z,3.71
2022-09-03T03:22:35.000Z,3.98
2022-09-03T03:27:34.000Z,3.7
2022-09-03T03:32:34.000Z,3.26
2022-09-03T03:37:35.000Z,3.26
2022-09-03T03:42:34.000Z,3.9
2022-09-03T03:47:34.000Z,4.18
2022-09-03T03:52:34.000Z,3.83
2022-09-03T03:57:34.000Z,4.69
2022-09-03T04:02:34.000Z,4.16
2022-09-03T04:07:35.000Z,4.35
2022-09-03T04:12:34.000Z,4.21
2022-09-03T04:17:35.000Z,3.8
2022-09-03T04:22:34.000Z,4.96
2022-09-03T04:27:35.000Z,5.04
2022-09-03T04:32:35.000Z,5.25
2022-09-03T04:37:34.000Z,4.88
2022-09-03T04:42:35.000Z,4.59
2022-09-03T04:47:35.000Z,4.4
2022-09-03T04:52:34.000Z,4.4
2022-09-03T04:57:35.000Z,3.92
2022-09-03T05:02:34.000Z,4.01
2022-09-03T05:07:35.000Z,3.67
2022-09-03T05:12:35.000Z,3.88
2022-09-03T05:17:34.000Z,3.85
2022-09-03T05:22:34.000Z,4.65
2022-09-03T05:27:35.000Z,4.38
2022-09-03T05:32:34.000Z,4.92
2022-09-03T05:37:34.000Z,4.57
2022-09-03T05:42:34.000Z,5.57
2022-09-03T05:47:35.000Z,6.66
2022-09-03T05:52:35.000Z,4.57
2022-09-03T05:57:34.000Z,2.16
2022-09-03T06:02:34.000Z,1.7
2022-09-03T06:07:35.000Z,1.7
2022-09-03T06:12:34.000Z,2.07
2022-09-03T06:17:34.000Z,2.55
2022-09-03T06:22:36.000Z,1.8
2022-09-03T06:27:34.000Z,1.47
2022-09-03T06:32:34.000Z,2.03
2022-09-03T06:37:35.000Z,1.89
2022-09-03T06:42:34.000Z,1.35
2022-09-03T06:47:34.000Z,1.65
2022-09-03T06:52:35.000Z,1.28
2022-09-03T06:57:34.000Z,0.95
2022-09-03T07:02:34.000Z,1.08
2022-09-03T07:07:35.000Z,1.06
2022-09-03T07:12:34.000Z,0.94
2022-09-03T07:17:34.000Z,1.08
2022-09-03T07:22:41.000Z,0.96
2022-09-03T07:27:35.000Z,0.96
2022-09-03T07:32:34.000Z,1.39
2022-09-03T07:37:35.000Z,1.18
2022-09-03T07:42:34.000Z,1.43
2022-09-03T07:47:37.000Z,1.17
2022-09-03T07:52:35.000Z,0.94
2022-09-03T07:57:35.000Z,0.74
2022-09-03T08:02:35.000Z,0.81
2022-09-03T08:07:37.000Z,1.29
2022-09-03T08:12:35.000Z,0.97
2022-09-03T08:17:35.000Z,1.3
2022-09-03T08:22:34.000Z,0.91
2022-09-03T08:27:34.000Z,1.29
2022-09-03T08:32:35.000Z,0.95
2022-09-03T08:42:35.000Z,1.15
2022-09-03T08:47:35.000Z,1.07
2022-09-03T08:52:34.000Z,0.83
2022-09-03T08:57:35.000Z,0.95
2022-09-03T09:02:35.000Z,1.23
2022-09-03T09:07:35.000Z,1.03
2022-09-03T09:17:34.000Z,1.14
2022-09-03T09:22:34.000Z,1.61
2022-09-03T09:27:34.000Z,1.51
2022-09-03T09:32:34.000Z,1.58
2022-09-03T09:37:35.000Z,2.39
2022-09-03T09:42:35.000Z,2.75
2022-09-03T09:47:35.000Z,1.83
2022-09-03T09:52:34.000Z,1.92
2022-09-03T09:57:35.000Z,1.92
2022-09-03T10:02:35.000Z,1.63
2022-09-03T10:07:35.000Z,3.15
2022-09-03T10:12:34.000Z,4.4
2022-09-03T10:17:47.000Z,1.79
2022-09-03T10:22:36.000Z,1.28
2022-09-03T10:27:35.000Z,1.66
2022-09-03T10:37:34.000Z,1.61
2022-09-03T10:42:35.000Z,1.83
2022-09-03T10:47:35.000Z,2.05
2022-09-03T10:52:35.000Z,2.21
2022-09-03T10:57:35.000Z,1.55
2022-09-03T11:02:35.000Z,1.8
2022-09-03T11:07:35.000Z,3.67
2022-09-03T11:12:34.000Z,2.22
2022-09-03T11:17:34.000Z,3.03
2022-09-03T11:22:34.000Z,2.81
2022-09-03T11:27:35.000Z,2.25
2022-09-03T11:32:35.000Z,1.35
2022-09-03T11:37:34.000Z,1.06
2022-09-03T11:42:35.000Z,1.06
2022-09-03T11:47:35.000Z,1.98
2022-09-03T11:52:34.000Z,1.25
2022-09-03T11:57:34.000Z,1.8
2022-09-03T12:02:38.000Z,2.11
2022-09-03T12:07:35.000Z,2.4
2022-09-03T12:12:34.000Z,1.5
2022-09-03T12:17:35.000Z,1.15
2022-09-03T12:22:35.000Z,1.35
2022-09-03T12:27:35.000Z,1.97
2022-09-03T12:32:34.000Z,1.93
2022-09-03T12:38:06.000Z,2
2022-09-03T12:42:34.000Z,9.53
2022-09-03T12:47:48.000Z,1.95
2022-09-03T12:52:35.000Z,1.95
2022-09-03T12:57:35.000Z,1.99
2022-09-03T13:02:35.000Z,1.65
2022-09-03T13:07:35.000Z,1.7
2022-09-03T13:12:36.000Z,1.71
2022-09-03T13:17:34.000Z,1.54
2022-09-03T13:22:34.000Z,2.03
2022-09-03T13:27:34.000Z,1.51
2022-09-03T13:32:35.000Z,1.45
2022-09-03T13:37:34.000Z,1.85
2022-09-03T13:42:35.000Z,3.46
2022-09-03T13:47:34.000Z,2.88
2022-09-03T13:52:35.000Z,2.29
2022-09-03T13:57:35.000Z,1.86
2022-09-03T14:02:35.000Z,2.7
2022-09-03T14:07:36.000Z,2.7
2022-09-03T14:12:35.000Z,2.12
2022-09-03T14:17:35.000Z,1.84
2022-09-03T14:22:34.000Z,3.52
2022-09-03T14:27:35.000Z,2.14
2022-09-03T14:32:34.000Z,1.89
2022-09-03T14:37:35.000Z,2
2022-09-03T14:42:35.000Z,1.95
2022-09-03T14:47:35.000Z,2.19
2022-09-03T14:52:34.000Z,2.76
2022-09-03T14:57:35.000Z,2.51
2022-09-03T15:02:34.000Z,2.78
2022-09-03T15:07:35.000Z,3.16
2022-09-03T15:12:34.000Z,2.81
2022-09-03T15:17:35.000Z,3.16
2022-09-03T15:22:34.000Z,3.16
2022-09-03T15:27:35.000Z,4.23
2022-09-03T15:32:35.000Z,3.5
2022-09-03T15:37:34.000Z,3.95
2022-09-03T15:42:34.000Z,3.43
2022-09-03T15:47:37.000Z,3.49
2022-09-03T15:52:35.000Z,4.03
2022-09-03T15:57:35.000Z,4.67
2022-09-03T16:02:35.000Z,4.87
2022-09-03T16:07:35.000Z,5.8
2022-09-03T16:12:35.000Z,17.32
2022-09-03T16:17:34.000Z,24.48
2022-09-03T16:22:34.000Z,29.38
2022-09-03T16:27:35.000Z,32.84
2022-09-03T16:32:34.000Z,29.36
2022-09-03T16:37:35.000Z,20.08
2022-09-03T16:42:35.000Z,20.08
2022-09-03T16:52:48.000Z,11.93
2022-09-03T16:57:35.000Z,16.52
2022-09-03T17:02:51.000Z,23.71
2022-09-03T17:07:34.000Z,29.66
2022-09-03T17:12:35.000Z,29.96
2022-09-03T17:22:35.000Z,25.71
2022-09-03T17:27:34.000Z,22.34
2022-09-03T17:32:34.000Z,20.8
2022-09-03T17:37:35.000Z,22.14
2022-09-03T17:42:35.000Z,21.93
2022-09-03T17:47:34.000Z,22.66
2022-09-03T17:52:35.000Z,20
2022-09-03T17:57:35.000Z,19.96
2022-09-03T18:02:35.000Z,19.96
2022-09-03T18:07:34.000Z,19.36
2022-09-03T18:12:35.000Z,20.79
2022-09-03T18:17:35.000Z,21.69
2022-09-03T18:22:35.000Z,20.69
2022-09-03T18:27:35.000Z,18.61
2022-09-03T18:32:34.000Z,19.46
2022-09-03T18:37:35.000Z,15.06
2022-09-03T18:42:35.000Z,12.48
2022-09-03T18:48:14.000Z,10.33
2022-09-03T18:52:35.000Z,10.66
2022-09-03T18:57:36.000Z,9.5
2022-09-03T19:02:35.000Z,11.42
2022-09-03T19:07:35.000Z,20.09
2022-09-03T19:12:34.000Z,20.09
2022-09-03T19:17:34.000Z,26.37
2022-09-03T19:22:35.000Z,22.66
2022-09-03T19:28:05.000Z,22.72
2022-09-03T19:32:35.000Z,22.96
2022-09-03T19:37:35.000Z,19.67
2022-09-03T19:42:35.000Z,12.07
2022-09-03T19:47:35.000Z,12.45
2022-09-03T19:52:35.000Z,11.79
2022-09-03T19:57:35.000Z,14.07
2022-09-03T20:02:35.000Z,18.63
2022-09-03T20:07:34.000Z,22.29
2022-09-03T20:12:34.000Z,23.67
2022-09-03T20:17:35.000Z,25.91
2022-09-03T20:22:34.000Z,27.31
2022-09-03T20:27:34.000Z,27.31
2022-09-03T20:32:35.000Z,25.04
2022-09-03T20:37:35.000Z,26.63
2022-09-03T20:42:35.000Z,26.09
2022-09-03T20:47:38.000Z,27.32
2022-09-03T20:52:35.000Z,25.2
2022-09-03T20:57:35.000Z,24.6
2022-09-03T21:07:35.000Z,23.98
2022-09-03T21:12:35.000Z,25.83
2022-09-03T21:17:35.000Z,25.48
2022-09-03T21:22:34.000Z,23.71
2022-09-03T21:27:35.000Z,23.71
2022-09-03T21:32:35.000Z,20.88
2022-09-03T21:37:35.000Z,20.66
2022-09-03T21:42:35.000Z,23.71
2022-09-03T21:47:35.000Z,24.79
2022-09-03T21:52:35.000Z,24.94
2022-09-03T21:57:35.000Z,26.45
2022-09-03T22:02:35.000Z,23.91
2022-09-03T22:07:34.000Z,25.09
2022-09-03T22:12:34.000Z,22.68
2022-09-03T22:17:35.000Z,21.89
2022-09-03T22:22:35.000Z,20.63
2022-09-03T22:27:34.000Z,16.29
2022-09-03T22:32:35.000Z,12.33
2022-09-03T22:37:34.000Z,10.2
2022-09-03T22:42:35.000Z,10.2
2022-09-03T22:47:35.000Z,10.26
2022-09-03T22:52:35.000Z,13.97
2022-09-03T22:57:34.000Z,13.53
2022-09-03T23:02:35.000Z,11.93
2022-09-03T23:12:34.000Z,10.92
2022-09-03T23:22:34.000Z,10.23
2022-09-03T23:27:35.000Z,10.23
2022-09-03T23:32:43.000Z,10.84
2022-09-03T23:37:44.000Z,10.92
2022-09-03T23:42:35.000Z,10.49
2022-09-03T23:47:35.000Z,9.87
2022-09-03T23:52:35.000Z,10.65
2022-09-03T23:57:35.000Z,10.82
